sensor_id;sensor_type;location;lat;lon;timestamp;P1;durP1;ratioP1;P2;durP2;ratioP2
59109;SDS011;44895;47.438;18.978;2023-10-31T00:01:14;13.30;;;7.05;;
59109;SDS011;44895;47.438;18.978;2023-10-31T00:04:17;13.63;;;6.20;;
59109;SDS011;44895;47.438;18.978;2023-10-31T00:07:21;13.07;;;7.40;;
59109;SDS011;44895;47.438;18.978;2023-10-31T00:10:25;13.38;;;7.47;;
59109;SDS011;44895;47.438;18.978;2023-10-31T00:13:29;18.27;;;7.80;;
59109;SDS011;44895;47.438;18.978;2023-10-31T00:16:33;12.65;;;6.88;;
59109;SDS011;44895;47.438;18.978;2023-10-31T00:19:37;14.75;;;7.47;;
59109;SDS011;44895;47.438;18.978;2023-10-31T00:22:41;10.98;;;6.95;;
59109;SDS011;44895;47.438;18.978;2023-10-31T00:25:45;14.27;;;8.43;;
59109;SDS011;44895;47.438;18.978;2023-10-31T00:28:48;16.73;;;7.22;;
59109;SDS011;44895;47.438;18.978;2023-10-31T00:31:52;11.88;;;5.50;;
59109;SDS011;44895;47.438;18.978;2023-10-31T00:34:56;11.52;;;5.95;;
59109;SDS011;44895;47.438;18.978;2023-10-31T00:37:59;16.35;;;7.30;;
59109;SDS011;44895;47.438;18.978;2023-10-31T00:41:03;16.40;;;7.63;;
59109;SDS011;44895;47.438;18.978;2023-10-31T00:44:07;18.63;;;8.82;;
59109;SDS011;44895;47.438;18.978;2023-10-31T00:47:11;12.90;;;7.85;;
59109;SDS011;44895;47.438;18.978;2023-10-31T00:50:14;13.88;;;8.05;;
59109;SDS011;44895;47.438;18.978;2023-10-31T00:53:18;16.33;;;10.30;;
59109;SDS011;44895;47.438;18.978;2023-10-31T00:56:22;21.25;;;9.27;;
59109;SDS011;44895;47.438;18.978;2023-10-31T00:59:26;22.08;;;9.43;;
59109;SDS011;44895;47.438;18.978;2023-10-31T01:02:29;20.60;;;10.60;;
59109;SDS011;44895;47.438;18.978;2023-10-31T01:05:33;16.23;;;9.48;;
59109;SDS011;44895;47.438;18.978;2023-10-31T01:08:37;16.42;;;9.20;;
59109;SDS011;44895;47.438;18.978;2023-10-31T01:11:40;17.98;;;9.55;;
59109;SDS011;44895;47.438;18.978;2023-10-31T01:14:44;16.58;;;10.10;;
59109;SDS011;44895;47.438;18.978;2023-10-31T01:17:48;16.58;;;10.73;;
59109;SDS011;44895;47.438;18.978;2023-10-31T01:20:53;17.08;;;9.23;;
59109;SDS011;44895;47.438;18.978;2023-10-31T01:23:58;17.38;;;9.43;;
59109;SDS011;44895;47.438;18.978;2023-10-31T01:27:02;15.25;;;8.45;;
59109;SDS011;44895;47.438;18.978;2023-10-31T01:30:06;17.80;;;8.88;;
59109;SDS011;44895;47.438;18.978;2023-10-31T01:33:10;12.82;;;8.30;;
59109;SDS011;44895;47.438;18.978;2023-10-31T01:36:14;13.45;;;9.98;;
59109;SDS011;44895;47.438;18.978;2023-10-31T01:39:18;16.20;;;9.80;;
59109;SDS011;44895;47.438;18.978;2023-10-31T01:42:21;15.27;;;9.63;;
59109;SDS011;44895;47.438;18.978;2023-10-31T01:45:25;16.58;;;8.77;;
59109;SDS011;44895;47.438;18.978;2023-10-31T01:48:30;17.20;;;9.57;;
59109;SDS011;44895;47.438;18.978;2023-10-31T01:51:35;17.75;;;10.07;;
59109;SDS011;44895;47.438;18.978;2023-10-31T01:54:39;15.80;;;8.18;;
59109;SDS011;44895;47.438;18.978;2023-10-31T01:57:44;22.10;;;8.88;;
59109;SDS011;44895;47.438;18.978;2023-10-31T02:00:50;12.68;;;8.68;;
59109;SDS011;44895;47.438;18.978;2023-10-31T02:03:54;14.90;;;8.70;;
59109;SDS011;44895;47.438;18.978;2023-10-31T02:06:58;14.88;;;10.50;;
59109;SDS011;44895;47.438;18.978;2023-10-31T02:10:02;19.30;;;8.80;;
59109;SDS011;44895;47.438;18.978;2023-10-31T02:13:12;14.23;;;8.98;;
59109;SDS011;44895;47.438;18.978;2023-10-31T02:16:16;19.85;;;9.13;;
59109;SDS011;44895;47.438;18.978;2023-10-31T02:19:20;16.02;;;8.55;;
59109;SDS011;44895;47.438;18.978;2023-10-31T02:22:25;17.90;;;9.07;;
59109;SDS011;44895;47.438;18.978;2023-10-31T02:25:28;13.27;;;8.45;;
59109;SDS011;44895;47.438;18.978;2023-10-31T02:28:33;16.13;;;9.43;;
59109;SDS011;44895;47.438;18.978;2023-10-31T02:31:36;15.57;;;9.52;;
59109;SDS011;44895;47.438;18.978;2023-10-31T02:34:40;16.63;;;9.75;;
59109;SDS011;44895;47.438;18.978;2023-10-31T02:37:45;19.10;;;11.63;;
59109;SDS011;44895;47.438;18.978;2023-10-31T02:40:50;19.40;;;9.63;;
59109;SDS011;44895;47.438;18.978;2023-10-31T02:43:54;17.33;;;8.95;;
59109;SDS011;44895;47.438;18.978;2023-10-31T02:46:58;14.27;;;9.50;;
59109;SDS011;44895;47.438;18.978;2023-10-31T02:50:02;19.83;;;10.05;;
59109;SDS011;44895;47.438;18.978;2023-10-31T02:53:06;11.75;;;9.32;;
59109;SDS011;44895;47.438;18.978;2023-10-31T02:56:10;13.30;;;8.77;;
59109;SDS011;44895;47.438;18.978;2023-10-31T02:59:15;14.82;;;8.82;;
59109;SDS011;44895;47.438;18.978;2023-10-31T03:02:18;15.68;;;9.45;;
59109;SDS011;44895;47.438;18.978;2023-10-31T03:05:22;13.80;;;9.85;;
59109;SDS011;44895;47.438;18.978;2023-10-31T03:08:26;15.68;;;9.48;;
59109;SDS011;44895;47.438;18.978;2023-10-31T03:11:31;13.68;;;8.70;;
59109;SDS011;44895;47.438;18.978;2023-10-31T03:14:35;18.23;;;10.27;;
59109;SDS011;44895;47.438;18.978;2023-10-31T03:17:39;15.05;;;9.48;;
59109;SDS011;44895;47.438;18.978;2023-10-31T03:20:43;15.50;;;9.07;;
59109;SDS011;44895;47.438;18.978;2023-10-31T03:23:49;14.90;;;9.80;;
59109;SDS011;44895;47.438;18.978;2023-10-31T03:26:56;17.27;;;8.65;;
59109;SDS011;44895;47.438;18.978;2023-10-31T03:30:01;16.33;;;9.65;;
59109;SDS011;44895;47.438;18.978;2023-10-31T03:33:04;17.42;;;8.88;;
59109;SDS011;44895;47.438;18.978;2023-10-31T03:36:09;14.73;;;7.22;;
59109;SDS011;44895;47.438;18.978;2023-10-31T03:39:12;14.27;;;9.60;;
59109;SDS011;44895;47.438;18.978;2023-10-31T03:42:16;12.77;;;8.98;;
59109;SDS011;44895;47.438;18.978;2023-10-31T03:45:20;13.18;;;7.75;;
59109;SDS011;44895;47.438;18.978;2023-10-31T03:48:24;15.68;;;8.63;;
59109;SDS011;44895;47.438;18.978;2023-10-31T03:51:28;16.13;;;9.82;;
59109;SDS011;44895;47.438;18.978;2023-10-31T03:54:32;13.85;;;9.45;;
59109;SDS011;44895;47.438;18.978;2023-10-31T03:57:35;14.77;;;9.60;;
59109;SDS011;44895;47.438;18.978;2023-10-31T04:00:39;14.32;;;9.40;;
59109;SDS011;44895;47.438;18.978;2023-10-31T04:03:44;20.60;;;9.90;;
59109;SDS011;44895;47.438;18.978;2023-10-31T04:06:49;13.30;;;9.02;;
59109;SDS011;44895;47.438;18.978;2023-10-31T04:09:53;17.85;;;9.18;;
59109;SDS011;44895;47.438;18.978;2023-10-31T04:12:57;14.35;;;9.40;;
59109;SDS011;44895;47.438;18.978;2023-10-31T04:16:01;14.13;;;8.98;;
59109;SDS011;44895;47.438;18.978;2023-10-31T04:19:05;16.05;;;8.98;;
59109;SDS011;44895;47.438;18.978;2023-10-31T04:22:08;12.45;;;8.57;;
59109;SDS011;44895;47.438;18.978;2023-10-31T04:25:12;15.15;;;9.20;;
59109;SDS011;44895;47.438;18.978;2023-10-31T04:28:16;14.07;;;10.02;;
59109;SDS011;44895;47.438;18.978;2023-10-31T04:31:20;12.30;;;8.60;;
59109;SDS011;44895;47.438;18.978;2023-10-31T04:34:23;16.27;;;8.93;;
59109;SDS011;44895;47.438;18.978;2023-10-31T04:37:27;13.50;;;9.10;;
59109;SDS011;44895;47.438;18.978;2023-10-31T04:40:31;17.08;;;9.30;;
59109;SDS011;44895;47.438;18.978;2023-10-31T04:43:34;18.90;;;10.20;;
59109;SDS011;44895;47.438;18.978;2023-10-31T04:46:38;15.25;;;8.88;;
59109;SDS011;44895;47.438;18.978;2023-10-31T04:49:42;18.70;;;9.45;;
59109;SDS011;44895;47.438;18.978;2023-10-31T04:52:46;13.18;;;8.95;;
59109;SDS011;44895;47.438;18.978;2023-10-31T04:55:50;12.75;;;8.68;;
59109;SDS011;44895;47.438;18.978;2023-10-31T04:58:54;14.57;;;8.75;;
59109;SDS011;44895;47.438;18.978;2023-10-31T05:01:57;18.90;;;10.35;;
59109;SDS011;44895;47.438;18.978;2023-10-31T05:05:01;13.00;;;9.13;;
59109;SDS011;44895;47.438;18.978;2023-10-31T05:08:05;15.07;;;9.48;;
59109;SDS011;44895;47.438;18.978;2023-10-31T05:11:09;17.65;;;8.60;;
59109;SDS011;44895;47.438;18.978;2023-10-31T05:14:13;15.05;;;9.13;;
59109;SDS011;44895;47.438;18.978;2023-10-31T05:17:16;13.50;;;8.93;;
59109;SDS011;44895;47.438;18.978;2023-10-31T05:20:20;14.10;;;9.07;;
59109;SDS011;44895;47.438;18.978;2023-10-31T05:23:24;13.85;;;8.93;;
59109;SDS011;44895;47.438;18.978;2023-10-31T05:26:27;15.23;;;9.32;;
59109;SDS011;44895;47.438;18.978;2023-10-31T05:29:33;14.10;;;8.25;;
59109;SDS011;44895;47.438;18.978;2023-10-31T05:32:36;12.13;;;9.05;;
59109;SDS011;44895;47.438;18.978;2023-10-31T05:35:41;10.65;;;7.72;;
59109;SDS011;44895;47.438;18.978;2023-10-31T05:38:45;13.85;;;7.75;;
59109;SDS011;44895;47.438;18.978;2023-10-31T05:41:50;14.52;;;8.82;;
59109;SDS011;44895;47.438;18.978;2023-10-31T05:44:54;12.15;;;8.43;;
59109;SDS011;44895;47.438;18.978;2023-10-31T05:47:58;11.90;;;8.50;;
59109;SDS011;44895;47.438;18.978;2023-10-31T05:51:01;14.00;;;8.90;;
59109;SDS011;44895;47.438;18.978;2023-10-31T05:54:09;14.15;;;9.27;;
59109;SDS011;44895;47.438;18.978;2023-10-31T05:57:13;20.20;;;9.18;;
59109;SDS011;44895;47.438;18.978;2023-10-31T06:00:17;11.10;;;6.28;;
59109;SDS011;44895;47.438;18.978;2023-10-31T06:03:21;11.15;;;6.00;;
59109;SDS011;44895;47.438;18.978;2023-10-31T06:06:24;12.60;;;5.80;;
59109;SDS011;44895;47.438;18.978;2023-10-31T06:09:28;9.85;;;5.75;;
59109;SDS011;44895;47.438;18.978;2023-10-31T06:12:32;10.43;;;5.88;;
59109;SDS011;44895;47.438;18.978;2023-10-31T06:15:36;11.85;;;6.82;;
59109;SDS011;44895;47.438;18.978;2023-10-31T06:18:39;9.18;;;6.13;;
59109;SDS011;44895;47.438;18.978;2023-10-31T06:21:43;11.80;;;6.82;;
59109;SDS011;44895;47.438;18.978;2023-10-31T06:24:47;10.48;;;5.75;;
59109;SDS011;44895;47.438;18.978;2023-10-31T06:27:50;11.05;;;6.63;;
59109;SDS011;44895;47.438;18.978;2023-10-31T06:30:54;11.70;;;6.93;;
59109;SDS011;44895;47.438;18.978;2023-10-31T06:33:58;13.50;;;6.80;;
59109;SDS011;44895;47.438;18.978;2023-10-31T06:37:02;11.35;;;7.55;;
59109;SDS011;44895;47.438;18.978;2023-10-31T06:40:06;14.10;;;7.72;;
59109;SDS011;44895;47.438;18.978;2023-10-31T06:43:11;15.63;;;7.75;;
59109;SDS011;44895;47.438;18.978;2023-10-31T06:46:14;9.93;;;5.53;;
59109;SDS011;44895;47.438;18.978;2023-10-31T06:49:19;13.15;;;6.95;;
59109;SDS011;44895;47.438;18.978;2023-10-31T06:52:24;13.15;;;8.25;;
59109;SDS011;44895;47.438;18.978;2023-10-31T06:55:28;8.60;;;5.07;;
59109;SDS011;44895;47.438;18.978;2023-10-31T06:58:31;11.63;;;5.72;;
59109;SDS011;44895;47.438;18.978;2023-10-31T07:01:35;13.73;;;7.00;;
59109;SDS011;44895;47.438;18.978;2023-10-31T07:04:39;12.43;;;7.05;;
59109;SDS011;44895;47.438;18.978;2023-10-31T07:07:42;12.70;;;7.25;;
59109;SDS011;44895;47.438;18.978;2023-10-31T07:10:46;14.70;;;7.70;;
59109;SDS011;44895;47.438;18.978;2023-10-31T07:13:50;13.70;;;8.88;;
59109;SDS011;44895;47.438;18.978;2023-10-31T07:16:55;13.90;;;7.57;;
59109;SDS011;44895;47.438;18.978;2023-10-31T07:19:59;17.35;;;11.70;;
59109;SDS011;44895;47.438;18.978;2023-10-31T07:23:03;15.30;;;9.52;;
59109;SDS011;44895;47.438;18.978;2023-10-31T07:26:07;17.13;;;8.63;;
59109;SDS011;44895;47.438;18.978;2023-10-31T07:29:11;13.88;;;9.95;;
59109;SDS011;44895;47.438;18.978;2023-10-31T07:32:15;23.48;;;9.40;;
59109;SDS011;44895;47.438;18.978;2023-10-31T07:35:19;23.13;;;10.57;;
59109;SDS011;44895;47.438;18.978;2023-10-31T07:38:23;12.02;;;8.80;;
59109;SDS011;44895;47.438;18.978;2023-10-31T07:41:27;17.27;;;8.68;;
59109;SDS011;44895;47.438;18.978;2023-10-31T07:44:30;12.40;;;8.02;;
59109;SDS011;44895;47.438;18.978;2023-10-31T07:47:34;13.02;;;7.57;;
59109;SDS011;44895;47.438;18.978;2023-10-31T07:50:38;17.08;;;10.43;;
59109;SDS011;44895;47.438;18.978;2023-10-31T07:53:41;12.80;;;5.70;;
59109;SDS011;44895;47.438;18.978;2023-10-31T07:56:45;13.35;;;6.95;;
59109;SDS011;44895;47.438;18.978;2023-10-31T07:59:49;10.10;;;4.20;;
59109;SDS011;44895;47.438;18.978;2023-10-31T08:02:53;9.15;;;3.47;;
59109;SDS011;44895;47.438;18.978;2023-10-31T08:05:57;9.80;;;3.35;;
59109;SDS011;44895;47.438;18.978;2023-10-31T08:09:00;7.60;;;3.00;;
59109;SDS011;44895;47.438;18.978;2023-10-31T08:12:05;8.00;;;3.15;;
59109;SDS011;44895;47.438;18.978;2023-10-31T08:15:09;8.50;;;3.67;;
59109;SDS011;44895;47.438;18.978;2023-10-31T08:18:13;8.35;;;3.63;;
59109;SDS011;44895;47.438;18.978;2023-10-31T08:21:17;12.45;;;2.97;;
59109;SDS011;44895;47.438;18.978;2023-10-31T08:24:20;5.72;;;2.25;;
59109;SDS011;44895;47.438;18.978;2023-10-31T08:27:24;7.78;;;3.00;;
59109;SDS011;44895;47.438;18.978;2023-10-31T08:30:28;12.98;;;3.15;;
59109;SDS011;44895;47.438;18.978;2023-10-31T08:33:32;10.15;;;4.25;;
59109;SDS011;44895;47.438;18.978;2023-10-31T08:36:35;13.43;;;3.85;;
59109;SDS011;44895;47.438;18.978;2023-10-31T08:39:40;8.82;;;2.90;;
59109;SDS011;44895;47.438;18.978;2023-10-31T08:42:43;7.75;;;3.33;;
59109;SDS011;44895;47.438;18.978;2023-10-31T08:45:47;7.28;;;2.85;;
59109;SDS011;44895;47.438;18.978;2023-10-31T08:48:51;6.40;;;2.70;;
59109;SDS011;44895;47.438;18.978;2023-10-31T08:51:55;8.13;;;2.97;;
59109;SDS011;44895;47.438;18.978;2023-10-31T08:54:58;8.05;;;2.88;;
59109;SDS011;44895;47.438;18.978;2023-10-31T08:58:02;9.05;;;2.72;;
59109;SDS011;44895;47.438;18.978;2023-10-31T09:01:06;5.20;;;2.08;;
59109;SDS011;44895;47.438;18.978;2023-10-31T09:04:10;8.70;;;2.95;;
59109;SDS011;44895;47.438;18.978;2023-10-31T09:07:14;7.78;;;2.35;;
59109;SDS011;44895;47.438;18.978;2023-10-31T09:10:18;7.43;;;2.83;;
59109;SDS011;44895;47.438;18.978;2023-10-31T09:13:21;11.75;;;2.80;;
59109;SDS011;44895;47.438;18.978;2023-10-31T09:16:25;6.22;;;2.72;;
59109;SDS011;44895;47.438;18.978;2023-10-31T09:19:29;9.23;;;2.20;;
59109;SDS011;44895;47.438;18.978;2023-10-31T09:22:33;6.85;;;3.08;;
59109;SDS011;44895;47.438;18.978;2023-10-31T09:25:37;6.30;;;2.60;;
59109;SDS011;44895;47.438;18.978;2023-10-31T09:28:40;7.45;;;2.47;;
59109;SDS011;44895;47.438;18.978;2023-10-31T09:31:52;7.65;;;2.55;;
59109;SDS011;44895;47.438;18.978;2023-10-31T09:34:56;7.78;;;3.08;;
59109;SDS011;44895;47.438;18.978;2023-10-31T09:38:00;6.65;;;2.50;;
59109;SDS011;44895;47.438;18.978;2023-10-31T09:41:04;8.63;;;3.85;;
59109;SDS011;44895;47.438;18.978;2023-10-31T09:44:08;4.15;;;2.25;;
59109;SDS011;44895;47.438;18.978;2023-10-31T09:47:12;8.50;;;2.40;;
59109;SDS011;44895;47.438;18.978;2023-10-31T09:50:17;4.15;;;1.92;;
59109;SDS011;44895;47.438;18.978;2023-10-31T09:53:21;6.32;;;2.42;;
59109;SDS011;44895;47.438;18.978;2023-10-31T09:56:25;8.23;;;3.75;;
59109;SDS011;44895;47.438;18.978;2023-10-31T09:59:37;3.95;;;2.13;;
59109;SDS011;44895;47.438;18.978;2023-10-31T10:02:41;8.48;;;2.55;;
59109;SDS011;44895;47.438;18.978;2023-10-31T10:05:45;7.32;;;2.42;;
59109;SDS011;44895;47.438;18.978;2023-10-31T10:08:50;7.32;;;2.58;;
59109;SDS011;44895;47.438;18.978;2023-10-31T10:11:53;12.73;;;3.20;;
59109;SDS011;44895;47.438;18.978;2023-10-31T10:14:58;8.10;;;2.42;;
59109;SDS011;44895;47.438;18.978;2023-10-31T10:18:02;7.78;;;2.40;;
59109;SDS011;44895;47.438;18.978;2023-10-31T10:21:06;6.47;;;2.50;;
59109;SDS011;44895;47.438;18.978;2023-10-31T10:24:11;9.50;;;2.95;;
59109;SDS011;44895;47.438;18.978;2023-10-31T10:27:15;6.13;;;2.13;;
59109;SDS011;44895;47.438;18.978;2023-10-31T10:30:19;4.03;;;1.38;;
59109;SDS011;44895;47.438;18.978;2023-10-31T10:33:22;6.25;;;2.38;;
59109;SDS011;44895;47.438;18.978;2023-10-31T10:36:26;8.80;;;2.35;;
59109;SDS011;44895;47.438;18.978;2023-10-31T10:39:30;6.00;;;2.33;;
59109;SDS011;44895;47.438;18.978;2023-10-31T10:42:40;6.90;;;2.50;;
59109;SDS011;44895;47.438;18.978;2023-10-31T10:45:55;7.60;;;2.05;;
59109;SDS011;44895;47.438;18.978;2023-10-31T10:49:03;6.25;;;2.25;;
59109;SDS011;44895;47.438;18.978;2023-10-31T10:52:18;8.43;;;2.65;;
59109;SDS011;44895;47.438;18.978;2023-10-31T10:55:25;7.60;;;1.92;;
59109;SDS011;44895;47.438;18.978;2023-10-31T10:58:34;5.28;;;1.70;;
59109;SDS011;44895;47.438;18.978;2023-10-31T11:01:42;6.25;;;1.98;;
59109;SDS011;44895;47.438;18.978;2023-10-31T11:04:49;10.88;;;2.22;;
59109;SDS011;44895;47.438;18.978;2023-10-31T11:07:54;7.47;;;2.60;;
59109;SDS011;44895;47.438;18.978;2023-10-31T11:11:00;6.40;;;1.80;;
59109;SDS011;44895;47.438;18.978;2023-10-31T11:14:04;6.50;;;2.70;;
59109;SDS011;44895;47.438;18.978;2023-10-31T11:17:14;14.70;;;2.90;;
59109;SDS011;44895;47.438;18.978;2023-10-31T11:20:27;11.75;;;2.45;;
59109;SDS011;44895;47.438;18.978;2023-10-31T11:23:32;5.72;;;2.00;;
59109;SDS011;44895;47.438;18.978;2023-10-31T11:26:36;5.40;;;1.63;;
59109;SDS011;44895;47.438;18.978;2023-10-31T11:29:55;4.57;;;1.40;;
59109;SDS011;44895;47.438;18.978;2023-10-31T11:32:58;9.43;;;2.60;;
59109;SDS011;44895;47.438;18.978;2023-10-31T11:36:03;5.85;;;2.22;;
59109;SDS011;44895;47.438;18.978;2023-10-31T11:39:10;5.82;;;2.33;;
59109;SDS011;44895;47.438;18.978;2023-10-31T11:42:19;6.90;;;2.42;;
59109;SDS011;44895;47.438;18.978;2023-10-31T11:45:25;10.85;;;2.30;;
59109;SDS011;44895;47.438;18.978;2023-10-31T11:48:44;5.75;;;1.65;;
59109;SDS011;44895;47.438;18.978;2023-10-31T11:51:55;6.22;;;2.35;;
59109;SDS011;44895;47.438;18.978;2023-10-31T11:54:59;7.68;;;2.63;;
59109;SDS011;44895;47.438;18.978;2023-10-31T12:01:23;6.20;;;2.22;;
59109;SDS011;44895;47.438;18.978;2023-10-31T12:04:27;8.15;;;3.03;;
59109;SDS011;44895;47.438;18.978;2023-10-31T12:07:40;10.82;;;3.35;;
59109;SDS011;44895;47.438;18.978;2023-10-31T12:10:45;7.38;;;2.65;;
59109;SDS011;44895;47.438;18.978;2023-10-31T12:13:56;9.20;;;3.10;;
59109;SDS011;44895;47.438;18.978;2023-10-31T12:17:04;7.40;;;2.97;;
59109;SDS011;44895;47.438;18.978;2023-10-31T12:20:08;18.77;;;6.22;;
59109;SDS011;44895;47.438;18.978;2023-10-31T12:23:12;14.98;;;4.18;;
59109;SDS011;44895;47.438;18.978;2023-10-31T12:26:23;16.92;;;5.88;;
59109;SDS011;44895;47.438;18.978;2023-10-31T12:29:27;14.65;;;4.03;;
59109;SDS011;44895;47.438;18.978;2023-10-31T12:32:30;10.73;;;4.47;;
59109;SDS011;44895;47.438;18.978;2023-10-31T12:35:34;8.63;;;3.72;;
59109;SDS011;44895;47.438;18.978;2023-10-31T12:38:38;11.60;;;4.90;;
59109;SDS011;44895;47.438;18.978;2023-10-31T12:41:42;8.68;;;4.03;;
59109;SDS011;44895;47.438;18.978;2023-10-31T12:44:46;12.23;;;3.65;;
59109;SDS011;44895;47.438;18.978;2023-10-31T12:48:01;13.95;;;4.32;;
59109;SDS011;44895;47.438;18.978;2023-10-31T12:51:13;12.25;;;4.53;;
59109;SDS011;44895;47.438;18.978;2023-10-31T12:54:26;10.65;;;4.47;;
59109;SDS011;44895;47.438;18.978;2023-10-31T12:57:38;8.65;;;3.90;;
59109;SDS011;44895;47.438;18.978;2023-10-31T13:00:42;16.05;;;5.03;;
59109;SDS011;44895;47.438;18.978;2023-10-31T13:03:49;13.15;;;3.83;;
59109;SDS011;44895;47.438;18.978;2023-10-31T13:06:55;9.43;;;5.10;;
59109;SDS011;44895;47.438;18.978;2023-10-31T13:10:08;10.75;;;4.75;;
59109;SDS011;44895;47.438;18.978;2023-10-31T13:13:12;17.00;;;4.53;;
59109;SDS011;44895;47.438;18.978;2023-10-31T13:16:16;11.07;;;5.22;;
59109;SDS011;44895;47.438;18.978;2023-10-31T13:19:20;11.40;;;4.28;;
59109;SDS011;44895;47.438;18.978;2023-10-31T13:22:23;11.38;;;3.85;;
59109;SDS011;44895;47.438;18.978;2023-10-31T13:25:27;10.30;;;3.72;;
59109;SDS011;44895;47.438;18.978;2023-10-31T13:28:31;17.15;;;5.53;;
59109;SDS011;44895;47.438;18.978;2023-10-31T13:31:35;11.77;;;4.38;;
59109;SDS011;44895;47.438;18.978;2023-10-31T13:34:39;9.32;;;4.25;;
59109;SDS011;44895;47.438;18.978;2023-10-31T13:37:43;8.25;;;3.78;;
59109;SDS011;44895;47.438;18.978;2023-10-31T13:40:47;6.05;;;2.97;;
59109;SDS011;44895;47.438;18.978;2023-10-31T13:43:51;6.32;;;2.30;;
59109;SDS011;44895;47.438;18.978;2023-10-31T13:46:55;3.88;;;1.65;;
59109;SDS011;44895;47.438;18.978;2023-10-31T13:49:59;3.75;;;1.73;;
59109;SDS011;44895;47.438;18.978;2023-10-31T13:53:02;3.97;;;1.38;;
59109;SDS011;44895;47.438;18.978;2023-10-31T13:56:08;3.30;;;1.30;;
59109;SDS011;44895;47.438;18.978;2023-10-31T13:59:12;4.80;;;1.05;;
59109;SDS011;44895;47.438;18.978;2023-10-31T14:02:16;1.92;;;0.85;;
59109;SDS011;44895;47.438;18.978;2023-10-31T14:05:20;2.50;;;0.90;;
59109;SDS011;44895;47.438;18.978;2023-10-31T14:08:24;6.03;;;1.33;;
59109;SDS011;44895;47.438;18.978;2023-10-31T14:11:28;5.00;;;2.28;;
59109;SDS011;44895;47.438;18.978;2023-10-31T14:14:32;4.22;;;1.73;;
59109;SDS011;44895;47.438;18.978;2023-10-31T14:17:35;2.47;;;1.00;;
59109;SDS011;44895;47.438;18.978;2023-10-31T14:20:39;1.70;;;0.80;;
59109;SDS011;44895;47.438;18.978;2023-10-31T14:23:43;1.77;;;0.73;;
59109;SDS011;44895;47.438;18.978;2023-10-31T14:26:48;4.30;;;1.00;;
59109;SDS011;44895;47.438;18.978;2023-10-31T14:29:52;2.20;;;1.05;;
59109;SDS011;44895;47.438;18.978;2023-10-31T14:32:56;4.28;;;1.23;;
59109;SDS011;44895;47.438;18.978;2023-10-31T14:36:00;8.20;;;1.25;;
59109;SDS011;44895;47.438;18.978;2023-10-31T14:39:04;2.88;;;0.93;;
59109;SDS011;44895;47.438;18.978;2023-10-31T14:42:08;1.42;;;0.82;;
59109;SDS011;44895;47.438;18.978;2023-10-31T14:45:12;2.47;;;1.00;;
59109;SDS011;44895;47.438;18.978;2023-10-31T14:48:15;1.77;;;0.60;;
59109;SDS011;44895;47.438;18.978;2023-10-31T14:51:19;3.67;;;0.85;;
59109;SDS011;44895;47.438;18.978;2023-10-31T14:54:41;4.22;;;1.10;;
59109;SDS011;44895;47.438;18.978;2023-10-31T14:57:45;1.75;;;0.98;;
59109;SDS011;44895;47.438;18.978;2023-10-31T15:00:49;1.35;;;0.50;;
59109;SDS011;44895;47.438;18.978;2023-10-31T15:03:54;2.25;;;0.68;;
59109;SDS011;44895;47.438;18.978;2023-10-31T15:06:58;4.30;;;0.90;;
59109;SDS011;44895;47.438;18.978;2023-10-31T15:10:03;3.13;;;1.02;;
59109;SDS011;44895;47.438;18.978;2023-10-31T15:13:07;2.17;;;0.70;;
59109;SDS011;44895;47.438;18.978;2023-10-31T15:16:10;2.03;;;0.88;;
59109;SDS011;44895;47.438;18.978;2023-10-31T15:19:14;3.67;;;1.40;;
59109;SDS011;44895;47.438;18.978;2023-10-31T15:22:18;3.83;;;1.50;;
59109;SDS011;44895;47.438;18.978;2023-10-31T15:25:22;3.83;;;1.48;;
59109;SDS011;44895;47.438;18.978;2023-10-31T15:28:26;3.00;;;1.27;;
59109;SDS011;44895;47.438;18.978;2023-10-31T15:31:29;5.85;;;1.73;;
59109;SDS011;44895;47.438;18.978;2023-10-31T15:34:33;5.05;;;1.77;;
59109;SDS011;44895;47.438;18.978;2023-10-31T15:37:37;4.72;;;1.40;;
59109;SDS011;44895;47.438;18.978;2023-10-31T15:40:41;4.25;;;1.65;;
59109;SDS011;44895;47.438;18.978;2023-10-31T15:43:45;5.63;;;1.55;;
59109;SDS011;44895;47.438;18.978;2023-10-31T15:46:49;4.15;;;1.48;;
59109;SDS011;44895;47.438;18.978;2023-10-31T15:49:52;5.28;;;1.48;;
59109;SDS011;44895;47.438;18.978;2023-10-31T15:52:56;3.60;;;1.77;;
59109;SDS011;44895;47.438;18.978;2023-10-31T15:56:00;3.10;;;1.10;;
59109;SDS011;44895;47.438;18.978;2023-10-31T15:59:05;3.55;;;1.10;;
59109;SDS011;44895;47.438;18.978;2023-10-31T16:02:09;5.07;;;1.40;;
59109;SDS011;44895;47.438;18.978;2023-10-31T16:05:12;5.30;;;2.67;;
59109;SDS011;44895;47.438;18.978;2023-10-31T16:08:16;5.47;;;2.20;;
59109;SDS011;44895;47.438;18.978;2023-10-31T16:11:20;6.22;;;2.35;;
59109;SDS011;44895;47.438;18.978;2023-10-31T16:14:24;6.28;;;1.85;;
59109;SDS011;44895;47.438;18.978;2023-10-31T16:17:28;4.20;;;1.50;;
59109;SDS011;44895;47.438;18.978;2023-10-31T16:20:32;4.28;;;1.40;;
59109;SDS011;44895;47.438;18.978;2023-10-31T16:23:37;6.25;;;1.40;;
59109;SDS011;44895;47.438;18.978;2023-10-31T16:26:41;5.35;;;2.03;;
59109;SDS011;44895;47.438;18.978;2023-10-31T16:29:45;2.72;;;1.30;;
59109;SDS011;44895;47.438;18.978;2023-10-31T16:32:48;5.55;;;2.15;;
59109;SDS011;44895;47.438;18.978;2023-10-31T16:35:52;4.38;;;1.65;;
59109;SDS011;44895;47.438;18.978;2023-10-31T16:38:56;6.65;;;2.65;;
59109;SDS011;44895;47.438;18.978;2023-10-31T16:42:00;5.82;;;2.28;;
59109;SDS011;44895;47.438;18.978;2023-10-31T16:45:05;5.05;;;1.80;;
59109;SDS011;44895;47.438;18.978;2023-10-31T16:48:10;4.70;;;1.77;;
59109;SDS011;44895;47.438;18.978;2023-10-31T16:51:15;4.57;;;2.05;;
59109;SDS011;44895;47.438;18.978;2023-10-31T16:54:22;4.50;;;1.70;;
59109;SDS011;44895;47.438;18.978;2023-10-31T16:57:25;5.97;;;2.08;;
59109;SDS011;44895;47.438;18.978;2023-10-31T17:00:29;7.13;;;2.38;;
59109;SDS011;44895;47.438;18.978;2023-10-31T17:03:33;8.55;;;3.25;;
59109;SDS011;44895;47.438;18.978;2023-10-31T17:06:37;6.32;;;3.03;;
59109;SDS011;44895;47.438;18.978;2023-10-31T17:09:40;8.38;;;2.38;;
59109;SDS011;44895;47.438;18.978;2023-10-31T17:12:44;9.52;;;3.00;;
59109;SDS011;44895;47.438;18.978;2023-10-31T17:15:48;7.32;;;2.72;;
59109;SDS011;44895;47.438;18.978;2023-10-31T17:18:52;7.25;;;2.33;;
59109;SDS011;44895;47.438;18.978;2023-10-31T17:21:55;4.30;;;1.85;;
59109;SDS011;44895;47.438;18.978;2023-10-31T17:24:59;6.05;;;2.38;;
59109;SDS011;44895;47.438;18.978;2023-10-31T17:28:03;6.82;;;2.78;;
59109;SDS011;44895;47.438;18.978;2023-10-31T17:31:08;9.02;;;3.65;;
59109;SDS011;44895;47.438;18.978;2023-10-31T17:34:13;7.68;;;3.10;;
59109;SDS011;44895;47.438;18.978;2023-10-31T17:37:17;7.30;;;3.53;;
59109;SDS011;44895;47.438;18.978;2023-10-31T17:40:21;7.88;;;3.58;;
59109;SDS011;44895;47.438;18.978;2023-10-31T17:43:26;11.60;;;4.45;;
59109;SDS011;44895;47.438;18.978;2023-10-31T17:46:30;8.30;;;3.40;;
59109;SDS011;44895;47.438;18.978;2023-10-31T17:49:34;6.82;;;3.08;;
59109;SDS011;44895;47.438;18.978;2023-10-31T17:52:38;5.70;;;2.58;;
59109;SDS011;44895;47.438;18.978;2023-10-31T17:55:42;6.25;;;3.33;;
59109;SDS011;44895;47.438;18.978;2023-10-31T17:58:46;6.13;;;2.85;;
59109;SDS011;44895;47.438;18.978;2023-10-31T18:01:50;6.47;;;1.98;;
59109;SDS011;44895;47.438;18.978;2023-10-31T18:04:56;5.88;;;2.17;;
59109;SDS011;44895;47.438;18.978;2023-10-31T18:08:02;6.60;;;2.55;;